Time;durP1;ratioP1;P1;durP2;ratioP2;P2;SDS_P1;SDS_P2;PMS_P1;PMS_P2;Temp;Humidity;BMP_temperature;BMP_pressure;BME280_temperature;BME280_humidity;BME280_pressure;Samples;Min_cycle;Max_cycle;Signal;HPM_P1;HPM_P2
2023/01/15 00:01:10;;;;;;;35.90;13.80;;;;;;;4.76;100.00;98386.83;67831;1278;1016457;-59
2023/01/15 00:04:23;;;;;;;36.10;13.60;;;;;;;4.78;100.00;98385.55;67884;1278;1016308;-59
2023/01/15 00:07:26;;;;;;;34.30;13.50;;;;;;;4.74;100.00;98385.55;67818;1277;1017963;-59
2023/01/15 00:10:28;;;;;;;37.00;14.20;;;;;;;4.73;100.00;98381.46;67842;1277;1016422;-59
2023/01/15 00:13:30;;;;;;;39.50;14.60;;;;;;;4.73;100.00;98375.59;67787;1277;1019933;-59
2023/01/15 00:16:33;;;;;;;36.40;14.50;;;;;;;4.73;100.00;98364.48;67832;1277;1016909;-59
2023/01/15 00:19:35;;;;;;;36.30;14.30;;;;;;;4.70;100.00;98357.83;67893;1277;1016067;-60
2023/01/15 00:22:38;;;;;;;34.00;13.50;;;;;;;4.67;100.00;98354.88;67872;1277;1016226;-59
2023/01/15 00:29:00;;;;;;;34.10;13.20;;;;;;;4.64;100.00;98343.05;67767;1277;1016355;-59
2023/01/15 00:32:03;;;;;;;34.70;13.20;;;;;;;4.63;100.00;98329.73;67837;1277;1015939;-60
2023/01/15 00:35:05;;;;;;;32.60;11.90;;;;;;;4.63;100.00;98314.66;67859;1277;1016234;-59
2023/01/15 00:38:08;;;;;;;32.50;12.50;;;;;;;4.59;100.00;98306.55;67864;1278;1016292;-59
2023/01/15 00:41:10;;;;;;;33.30;11.80;;;;;;;4.55;100.00;98304.00;67781;1278;1015995;-59
2023/01/15 00:44:13;;;;;;;36.00;12.10;;;;;;;4.56;100.00;98294.93;67814;1278;1016485;-59
2023/01/15 00:47:15;;;;;;;33.10;11.70;;;;;;;4.54;100.00;98286.53;67881;1277;1018046;-59
2023/01/15 00:50:18;;;;;;;33.40;12.60;;;;;;;4.53;100.00;98276.02;67885;1278;1016377;-60
2023/01/15 00:53:20;;;;;;;32.00;11.30;;;;;;;4.55;100.00;98269.33;67836;1277;1016390;-59
2023/01/15 00:56:23;;;;;;;29.80;10.80;;;;;;;4.58;100.00;98262.25;67833;1278;1016268;-59
2023/01/15 00:59:25;;;;;;;30.40;11.10;;;;;;;4.64;100.00;98258.70;67853;1278;1016458;-59
2023/01/15 01:02:28;;;;;;;30.20;10.70;;;;;;;4.72;100.00;98254.52;67870;1278;1016432;-59
2023/01/15 01:05:30;;;;;;;29.90;11.00;;;;;;;4.72;100.00;98243.77;67848;1278;1016268;-59
2023/01/15 01:08:32;;;;;;;30.20;10.00;;;;;;;4.78;100.00;98240.04;67780;1278;1016482;-59
2023/01/15 01:11:36;;;;;;;29.60;9.70;;;;;;;4.80;100.00;98247.58;67807;1278;1016441;-59
2023/01/15 01:14:38;;;;;;;28.00;9.70;;;;;;;4.84;100.00;98237.88;67815;1277;1016437;-59
2023/01/15 01:17:41;;;;;;;28.80;9.30;;;;;;;4.84;100.00;98231.96;67821;1277;1016386;-60
2023/01/15 01:20:43;;;;;;;24.40;8.10;;;;;;;4.87;100.00;98226.64;67873;1278;1016862;-59
2023/01/15 01:23:46;;;;;;;27.50;8.50;;;;;;;4.93;100.00;98227.21;67856;1278;1016468;-59
2023/01/15 01:26:48;;;;;;;28.10;8.20;;;;;;;4.99;100.00;98219.50;67818;1277;1016436;-59
2023/01/15 01:29:50;;;;;;;25.70;8.30;;;;;;;5.05;100.00;98211.91;67814;1277;1016316;-59
2023/01/15 01:32:53;;;;;;;23.80;7.90;;;;;;;5.06;100.00;98202.70;67820;1277;1016420;-59
2023/01/15 01:35:55;;;;;;;25.90;8.20;;;;;;;5.06;100.00;98194.70;67872;1277;1015869;-59
2023/01/15 01:38:58;;;;;;;25.10;8.00;;;;;;;5.14;100.00;98182.52;67858;1278;1016830;-59
2023/01/15 01:42:00;;;;;;;25.30;7.50;;;;;;;5.15;100.00;98177.13;67863;1278;1016381;-59
2023/01/15 01:45:02;;;;;;;22.80;7.40;;;;;;;5.16;100.00;98174.50;67814;1277;1015817;-59
2023/01/15 01:48:05;;;;;;;25.00;7.50;;;;;;;5.12;100.00;98170.32;67846;1278;1015873;-59
2023/01/15 01:51:07;;;;;;;23.40;7.00;;;;;;;5.11;100.00;98166.56;67802;1277;1016479;-59
2023/01/15 01:54:10;;;;;;;22.00;6.40;;;;;;;5.13;100.00;98159.55;67822;1277;1016456;-59
2023/01/15 01:57:12;;;;;;;22.00;6.30;;;;;;;5.13;100.00;98161.98;67880;1277;1016892;-59
2023/01/15 02:00:15;;;;;;;22.00;6.40;;;;;;;5.18;100.00;98163.99;67863;1277;1016328;-59
2023/01/15 02:03:17;;;;;;;22.70;6.30;;;;;;;5.21;100.00;98159.14;67820;1254;1016484;-59
2023/01/15 02:06:20;;;;;;;22.90;6.20;;;;;;;5.19;100.00;98152.66;67796;1278;1016564;-59
2023/01/15 02:09:23;;;;;;;22.90;6.80;;;;;;;5.27;100.00;98139.58;67778;1278;1018866;-59
2023/01/15 02:12:25;;;;;;;22.60;6.20;;;;;;;5.44;100.00;98139.78;67799;1277;1016424;-59
2023/01/15 02:15:28;;;;;;;21.70;5.80;;;;;;;5.40;100.00;98136.36;67773;1277;1016337;-59
2023/01/15 02:18:30;;;;;;;22.80;6.00;;;;;;;5.34;100.00;98134.94;67833;1277;1016405;-59
2023/01/15 02:21:32;;;;;;;20.10;5.90;;;;;;;5.32;100.00;98139.51;67866;1277;1017376;-59
2023/01/15 02:24:35;;;;;;;24.40;6.50;;;;;;;5.31;100.00;98135.60;67853;1277;1016424;-59
2023/01/15 02:27:37;;;;;;;21.20;5.80;;;;;;;5.29;100.00;98137.77;67811;1278;1016034;-59
2023/01/15 02:30:40;;;;;;;22.10;5.90;;;;;;;5.26;100.00;98143.32;67814;1278;1016367;-59
2023/01/15 02:33:42;;;;;;;21.20;5.90;;;;;;;5.25;100.00;98139.39;67856;1278;1017829;-59
2023/01/15 02:36:45;;;;;;;20.00;5.80;;;;;;;5.20;100.00;98124.34;67853;1278;1016513;-59
2023/01/15 02:39:47;;;;;;;21.30;6.00;;;;;;;5.19;100.00;98120.56;67837;1277;1018310;-59
2023/01/15 02:42:50;;;;;;;20.40;5.90;;;;;;;5.15;100.00;98120.13;67795;1277;1016358;-60
2023/01/15 02:45:52;;;;;;;20.50;5.80;;;;;;;5.12;100.00;98115.75;67808;1277;1016397;-59
2023/01/15 02:48:54;;;;;;;22.30;5.80;;;;;;;5.05;100.00;98111.05;67836;1277;1016523;-59
2023/01/15 02:51:57;;;;;;;21.40;5.90;;;;;;;5.02;100.00;98105.67;67850;1277;1016506;-60
2023/01/15 02:54:59;;;;;;;23.20;5.70;;;;;;;5.01;100.00;98099.80;67864;1278;1016294;-59
2023/01/15 02:58:02;;;;;;;21.90;5.70;;;;;;;5.00;100.00;98108.02;67792;1278;1016366;-59
2023/01/15 03:01:04;;;;;;;20.30;5.30;;;;;;;5.01;100.00;98107.96;67802;1277;1016587;-59
2023/01/15 03:04:08;;;;;;;21.50;5.60;;;;;;;5.02;100.00;98106.17;67851;1278;1016406;-59
2023/01/15 03:07:11;;;;;;;22.10;5.70;;;;;;;5.02;100.00;98104.10;67846;1277;1016485;-59
2023/01/15 03:10:13;;;;;;;22.40;5.60;;;;;;;5.00;100.00;98099.70;67856;1277;1015946;-59
2023/01/15 03:13:16;;;;;;;21.30;5.10;;;;;;;5.06;100.00;98091.27;67810;1277;1017671;-59
2023/01/15 03:16:37;;;;;;;23.10;5.60;;;;;;;5.06;100.00;98085.54;67792;1278;1016676;-59
2023/01/15 03:19:40;;;;;;;19.60;5.20;;;;;;;5.04;100.00;98079.77;67788;1277;1016381;-59
2023/01/15 03:22:43;;;;;;;18.60;4.80;;;;;;;4.98;100.00;98077.96;67835;1278;1016368;-59
2023/01/15 03:25:45;;;;;;;21.20;5.30;;;;;;;5.01;100.00;98073.50;67839;1277;1016990;-59
2023/01/15 03:28:48;;;;;;;20.90;5.20;;;;;;;4.97;100.00;98069.52;67823;1277;1016387;-59
2023/01/15 03:31:51;;;;;;;19.20;4.90;;;;;;;5.00;100.00;98060.38;67832;1278;1016324;-59
2023/01/15 03:34:53;;;;;;;;;;;;;;;5.02;100.00;98052.30;67858;1277;1016568;-60
2023/01/15 03:37:55;;;;;;;17.30;4.40;;;;;;;5.00;100.00;98043.02;67839;1278;1015993;-59
2023/01/15 03:40:58;;;;;;;27.80;8.60;;;;;;;4.99;100.00;98043.43;67761;1277;1016374;-59
2023/01/15 03:44:00;;;;;;;20.00;4.60;;;;;;;5.01;100.00;98042.48;67826;1277;1016998;-59
2023/01/15 03:47:03;;;;;;;18.60;4.70;;;;;;;4.97;100.00;98030.55;67851;1278;1020059;-59
2023/01/15 03:50:05;;;;;;;17.10;4.20;;;;;;;5.03;100.00;98030.04;67851;1278;1019459;-59
2023/01/15 03:53:08;;;;;;;15.70;4.10;;;;;;;5.08;100.00;98028.45;67849;1277;1016365;-59
2023/01/15 03:56:10;;;;;;;19.00;4.00;;;;;;;5.11;100.00;98029.50;67813;1278;1018480;-59
2023/01/15 03:59:12;;;;;;;18.10;4.60;;;;;;;5.16;100.00;98030.44;67802;1277;1018497;-59
2023/01/15 04:02:15;;;;;;;16.90;3.90;;;;;;;5.22;100.00;98033.77;67804;1278;1016469;-59
2023/01/15 04:05:17;;;;;;;19.50;4.70;;;;;;;5.19;100.00;98038.08;67851;1278;1016068;-59
2023/01/15 04:08:20;;;;;;;17.40;4.00;;;;;;;5.21;100.00;98033.64;67860;1277;1016114;-59
2023/01/15 04:11:23;;;;;;;18.80;4.20;;;;;;;5.19;100.00;98020.23;67841;1277;1016374;-59
2023/01/15 04:14:25;;;;;;;16.10;4.00;;;;;;;5.22;100.00;98016.44;67841;1277;1016509;-59
2023/01/15 04:17:28;;;;;;;15.70;3.50;;;;;;;5.25;100.00;98014.73;67753;1277;1016469;-59
2023/01/15 04:20:30;;;;;;;14.40;3.60;;;;;;;5.26;100.00;98006.38;67808;1278;1016480;-59
2023/01/15 04:23:33;;;;;;;13.80;3.40;;;;;;;5.32;100.00;97996.85;67812;1277;1016022;-59
2023/01/15 04:26:35;;;;;;;;;;;;;;;5.35;100.00;97991.31;67802;1278;1016091;-59
2023/01/15 04:29:37;;;;;;;15.30;3.80;;;;;;;5.38;100.00;97983.34;67797;1277;1016446;-59
2023/01/15 04:32:40;;;;;;;16.20;3.70;;;;;;;5.43;100.00;97979.66;67869;1277;1016223;-59
2023/01/15 04:35:43;;;;;;;16.50;3.50;;;;;;;5.44;100.00;97971.76;67856;1277;1018036;-59
2023/01/15 04:38:45;;;;;;;12.50;3.40;;;;;;;5.42;100.00;97968.77;67863;1277;1016484;-59
2023/01/15 04:45:08;;;;;;;16.70;3.70;;;;;;;5.52;100.00;97969.96;67836;1278;1016292;-59
2023/01/15 04:48:12;;;;;;;14.80;3.50;;;;;;;5.52;100.00;97964.57;67859;1278;1016390;-59
2023/01/15 04:51:14;;;;;;;;;;;;;;;5.57;100.00;97966.02;67864;1278;1016452;-59
2023/01/15 04:54:17;;;;;;;14.40;3.50;;;;;;;5.66;100.00;97967.48;67824;1278;1016219;-59
2023/01/15 04:57:20;;;;;;;;;;;;;;;5.66;100.00;97962.98;67830;1277;1015962;-59
2023/01/15 05:00:22;;;;;;;14.10;3.40;;;;;;;5.77;100.00;97962.51;67752;1278;1016306;-59
2023/01/15 05:03:25;;;;;;;14.10;3.70;;;;;;;5.87;100.00;97954.35;67880;1278;1016137;-59
2023/01/15 05:06:27;;;;;;;18.10;4.10;;;;;;;5.96;100.00;97949.34;67881;1278;1016215;-59
2023/01/15 05:09:30;;;;;;;14.50;3.50;;;;;;;6.01;100.00;97946.48;67806;1277;1015934;-59
2023/01/15 05:12:32;;;;;;;11.70;3.20;;;;;;;6.00;100.00;97938.88;67802;1277;1016477;-59
2023/01/15 05:15:34;;;;;;;15.40;3.60;;;;;;;6.01;100.00;97945.25;67831;1277;1016457;-60
2023/01/15 05:18:37;;;;;;;14.50;3.20;;;;;;;6.01;100.00;97941.46;67891;1277;1016210;-59
2023/01/15 05:21:39;;;;;;;15.30;3.30;;;;;;;6.03;100.00;97940.79;67829;1278;1016359;-59
2023/01/15 05:24:42;;;;;;;15.10;3.30;;;;;;;6.08;100.00;97941.09;67786;1277;1016326;-59
2023/01/15 05:27:44;;;;;;;11.30;2.90;;;;;;;6.20;100.00;97945.58;67801;1277;1016465;-60
2023/01/15 05:30:46;;;;;;;16.60;3.60;;;;;;;6.24;100.00;97943.45;67850;1278;1016604;-59
2023/01/15 05:33:49;;;;;;;16.90;3.90;;;;;;;6.27;100.00;97943.29;67824;1278;1016454;-59
2023/01/15 05:36:51;;;;;;;12.10;3.40;;;;;;;6.31;100.00;97936.50;67905;1277;1016518;-59
2023/01/15 05:39:54;;;;;;;16.20;3.50;;;;;;;6.39;100.00;97933.92;67849;1278;1015976;-59
2023/01/15 05:42:56;;;;;;;;;;;;;;;6.39;100.00;97929.20;67801;1277;1016444;-59
2023/01/15 05:45:59;;;;;;;12.90;3.40;;;;;;;6.38;100.00;97922.30;67815;1278;1016639;-59
2023/01/15 05:49:01;;;;;;;15.20;3.20;;;;;;;6.43;100.00;97917.72;67862;1278;1016415;-59
2023/01/15 05:52:04;;;;;;;12.00;2.90;;;;;;;6.45;100.00;97917.39;67801;1278;1016427;-59
2023/01/15 05:55:06;;;;;;;13.70;3.60;;;;;;;6.56;100.00;97913.81;67829;1277;1016288;-59
2023/01/15 05:58:09;;;;;;;12.50;3.20;;;;;;;6.58;100.00;97907.10;67832;1278;1016436;-59
2023/01/15 06:01:11;;;;;;;14.60;3.40;;;;;;;6.66;100.00;97905.58;67859;1278;1016440;-59
2023/01/15 06:04:14;;;;;;;14.20;3.40;;;;;;;6.76;100.00;97901.17;67854;1278;1016604;-59
2023/01/15 06:07:17;;;;;;;;;;;;;;;6.74;100.00;97902.84;67831;1278;1016389;-59
2023/01/15 06:10:19;;;;;;;14.70;3.20;;;;;;;6.79;100.00;97898.23;67862;1278;1016508;-59
2023/01/15 06:13:22;;;;;;;11.90;2.90;;;;;;;6.82;100.00;97898.20;67878;1278;1016565;-59
2023/01/15 06:16:24;;;;;;;13.30;3.10;;;;;;;6.80;100.00;97895.20;67821;1277;1016414;-59
2023/01/15 06:19:27;;;;;;;13.60;3.40;;;;;;;6.83;100.00;97888.60;67826;1277;1019369;-59
2023/01/15 06:22:29;;;;;;;17.10;3.60;;;;;;;6.85;100.00;97889.84;67857;1278;1016478;-59
2023/01/15 06:25:34;;;;;;;;;;;;;;;6.87;100.00;97893.23;67845;1278;1016409;-59
2023/01/15 06:28:36;;;;;;;26.60;9.80;;;;;;;6.87;100.00;97894.59;67805;1278;1016330;-59
2023/01/15 06:31:39;;;;;;;13.90;3.40;;;;;;;6.79;100.00;97890.40;67812;1278;1016412;-59
2023/01/15 06:34:43;;;;;;;15.30;3.50;;;;;;;6.88;100.00;97886.55;67817;1278;1016507;-59
2023/01/15 06:37:45;;;;;;;14.90;3.30;;;;;;;6.95;100.00;97890.81;67805;1278;1017179;-59
2023/01/15 06:40:48;;;;;;;11.80;3.10;;;;;;;7.00;100.00;97892.11;67861;1278;1016549;-59
2023/01/15 06:47:23;;;;;;;13.00;3.00;;;;;;;7.18;100.00;97887.70;67829;1278;1016443;-59
2023/01/15 06:50:25;;;;;;;15.50;3.70;;;;;;;7.24;100.00;97892.69;67789;1278;1016193;-60
2023/01/15 06:53:28;;;;;;;15.50;3.50;;;;;;;7.32;100.00;97891.64;67862;1278;1016269;-59
2023/01/15 06:56:30;;;;;;;13.30;3.40;;;;;;;7.39;100.00;97892.98;67790;1277;1015811;-60
2023/01/15 06:59:33;;;;;;;12.50;3.20;;;;;;;7.41;100.00;97898.77;67865;1277;1016293;-59
2023/01/15 07:02:35;;;;;;;17.30;4.20;;;;;;;7.41;100.00;97898.95;67808;1277;1016316;-59
2023/01/15 07:05:37;;;;;;;14.10;3.50;;;;;;;7.44;100.00;97902.06;67813;1278;1016022;-59
2023/01/15 07:08:40;;;;;;;14.70;3.30;;;;;;;7.51;100.00;97892.41;67809;1278;1016178;-59
2023/01/15 07:11:49;;;;;;;17.20;4.10;;;;;;;7.51;100.00;97893.08;67830;1278;1016440;-60
2023/01/15 07:14:51;;;;;;;14.50;3.60;;;;;;;7.54;100.00;97893.60;67758;1278;1016296;-60
2023/01/15 07:17:54;;;;;;;15.60;3.70;;;;;;;7.57;100.00;97895.83;67821;1277;1016206;-59
2023/01/15 07:20:56;;;;;;;14.00;3.60;;;;;;;7.67;100.00;97899.20;67878;1278;1016502;-59
2023/01/15 07:23:59;;;;;;;13.90;3.50;;;;;;;7.77;100.00;97898.25;67836;1278;1016317;-59
2023/01/15 07:27:01;;;;;;;13.20;3.10;;;;;;;7.73;100.00;97899.71;67766;1278;1016319;-59
2023/01/15 07:30:03;;;;;;;13.50;3.60;;;;;;;7.78;100.00;97901.13;67827;1278;1016066;-59
2023/01/15 07:33:06;;;;;;;13.60;3.40;;;;;;;7.84;100.00;97900.96;67841;1278;1016411;-59
2023/01/15 07:36:08;;;;;;;14.30;3.50;;;;;;;7.86;100.00;97900.09;67819;1277;1016455;-59
2023/01/15 07:39:11;;;;;;;11.20;3.40;;;;;;;7.93;100.00;97903.13;67829;1277;1016460;-59
2023/01/15 07:52:14;;;;;;;17.90;3.90;;;;;;;8.01;100.00;97898.42;67822;1277;1016422;-59
2023/01/15 07:55:16;;;;;;;21.50;5.20;;;;;;;8.01;100.00;97897.20;67798;1278;1016391;-60
2023/01/15 07:58:18;;;;;;;16.50;4.00;;;;;;;8.05;100.00;97893.09;67805;1278;1018562;-60
2023/01/15 08:01:21;;;;;;;15.60;4.60;;;;;;;8.09;100.00;97890.45;67844;1278;1016530;-59
2023/01/15 08:04:23;;;;;;;18.90;4.30;;;;;;;8.11;100.00;97898.46;67817;1278;1016248;-60
2023/01/15 08:07:26;;;;;;;16.70;4.00;;;;;;;8.11;100.00;97899.16;67790;1277;1015927;-59
2023/01/15 08:10:29;;;;;;;15.50;4.00;;;;;;;8.08;100.00;97896.59;67838;1278;1016089;-59
2023/01/15 08:16:51;;;;;;;16.50;3.90;;;;;;;8.07;100.00;97888.98;67845;1278;1016447;-59
2023/01/15 08:19:53;;;;;;;19.30;4.70;;;;;;;8.06;100.00;97886.59;67824;1278;1016460;-59
2023/01/15 08:22:56;;;;;;;17.90;4.70;;;;;;;8.07;100.00;97889.69;67841;1278;1016430;-60
2023/01/15 08:25:58;;;;;;;19.70;4.10;;;;;;;8.07;100.00;97890.00;67809;1278;1016603;-59
2023/01/15 08:29:01;;;;;;;18.30;4.10;;;;;;;8.14;100.00;97894.78;67782;1278;1016309;-59
2023/01/15 08:32:03;;;;;;;18.10;4.40;;;;;;;8.15;100.00;97899.59;67827;1278;1017634;-59
2023/01/15 08:35:05;;;;;;;17.00;4.00;;;;;;;8.10;100.00;97898.20;67836;1278;1016084;-59
2023/01/15 08:38:08;;;;;;;16.10;4.00;;;;;;;8.07;100.00;97895.42;67748;1278;1016097;-59
2023/01/15 08:41:10;;;;;;;14.80;4.00;;;;;;;8.05;100.00;97894.90;67765;1277;1016287;-60
2023/01/15 08:44:13;;;;;;;16.80;4.10;;;;;;;8.03;100.00;97890.14;67743;1278;1016970;-59
2023/01/15 08:47:15;;;;;;;18.30;4.40;;;;;;;8.06;100.00;97884.70;67832;1277;1016271;-59
2023/01/15 08:50:18;;;;;;;17.00;4.10;;;;;;;8.07;100.00;97879.78;67811;1278;1016923;-59
2023/01/15 08:53:21;;;;;;;18.00;5.00;;;;;;;8.08;100.00;97883.50;67806;1278;1016890;-60
2023/01/15 08:56:23;;;;;;;;;;;;;;;8.12;100.00;97885.69;67779;1278;1016460;-59
2023/01/15 08:59:25;;;;;;;17.50;4.50;;;;;;;8.14;100.00;97883.10;67805;1278;1016417;-59
2023/01/15 09:02:28;;;;;;;21.90;4.80;;;;;;;8.16;100.00;97884.55;67827;1278;1016413;-59
2023/01/15 09:05:31;;;;;;;18.20;4.70;;;;;;;8.23;100.00;97886.87;67803;1278;1015801;-59
2023/01/15 09:08:34;;;;;;;;;;;;;;;8.24;100.00;97884.93;67807;1278;1016445;-59
2023/01/15 09:11:39;;;;;;;20.10;5.20;;;;;;;8.24;100.00;97873.91;67803;1277;1016513;-59
2023/01/15 09:14:41;;;;;;;18.90;5.10;;;;;;;8.28;100.00;97873.86;67768;1278;1016386;-59
2023/01/15 09:17:44;;;;;;;17.00;4.30;;;;;;;8.33;100.00;97868.82;67845;1278;1016248;-60
2023/01/15 09:20:46;;;;;;;18.60;4.40;;;;;;;8.32;100.00;97867.64;67837;1278;1016995;-59
2023/01/15 09:23:49;;;;;;;18.00;4.50;;;;;;;8.39;100.00;97858.99;67789;1277;1016856;-59
2023/01/15 09:26:52;;;;;;;17.30;4.30;;;;;;;8.48;100.00;97850.08;67764;1278;1016481;-59
2023/01/15 09:29:54;;;;;;;17.70;4.40;;;;;;;8.44;100.00;97849.77;67843;1278;1015904;-59
2023/01/15 09:32:57;;;;;;;20.50;5.00;;;;;;;8.48;100.00;97844.31;67797;1257;1016357;-59
2023/01/15 09:35:59;;;;;;;19.80;4.60;;;;;;;8.52;100.00;97836.56;67783;1278;1016266;-59
2023/01/15 09:39:01;;;;;;;19.00;4.70;;;;;;;8.59;100.00;97836.10;67802;1278;1016408;-59
2023/01/15 09:42:07;;;;;;;21.60;5.40;;;;;;;8.70;100.00;97840.76;67784;1277;1016510;-60
2023/01/15 09:45:10;;;;;;;16.10;4.60;;;;;;;8.74;100.00;97845.02;67828;1278;1016423;-59
2023/01/15 09:48:12;;;;;;;19.80;5.00;;;;;;;8.75;100.00;97845.77;67822;1278;1016328;-59
2023/01/15 09:51:15;;;;;;;18.50;4.60;;;;;;;8.83;100.00;97842.67;67793;1278;1016479;-59
2023/01/15 09:54:17;;;;;;;20.80;5.10;;;;;;;8.92;100.00;97844.50;67788;1278;1015899;-59
2023/01/15 09:57:20;;;;;;;22.80;5.50;;;;;;;8.93;100.00;97842.45;67770;1278;1016440;-59
2023/01/15 10:00:22;;;;;;;19.00;4.50;;;;;;;8.98;100.00;97836.89;67755;1277;1016530;-59
2023/01/15 10:03:25;;;;;;;18.60;4.60;;;;;;;8.98;100.00;97833.91;67774;1278;1016459;-59
2023/01/15 10:06:28;;;;;;;18.60;4.80;;;;;;;8.98;100.00;97829.90;67744;1278;1016404;-59
2023/01/15 10:09:33;;;;;;;19.00;4.20;;;;;;;9.01;100.00;97825.49;67818;1278;1016497;-59
2023/01/15 10:12:38;;;;;;;18.20;4.70;;;;;;;9.05;100.00;97818.44;67802;1278;1016295;-59
2023/01/15 10:15:41;;;;;;;18.60;4.50;;;;;;;9.17;100.00;97814.45;67818;1278;1016405;-59
2023/01/15 10:18:43;;;;;;;19.30;4.90;;;;;;;9.06;100.00;97814.33;67786;1278;1016413;-59
2023/01/15 10:21:56;;;;;;;16.20;4.60;;;;;;;9.02;100.00;97806.27;65859;1277;5384747;-60
2023/01/15 10:24:58;;;;;;;19.40;4.80;;;;;;;9.01;100.00;97801.95;67818;1278;1016927;-59
2023/01/15 10:28:01;;;;;;;23.50;5.40;;;;;;;8.98;100.00;97800.08;67787;1278;1016217;-59
2023/01/15 10:31:04;;;;;;;20.30;5.20;;;;;;;8.90;100.00;97795.25;67765;1278;1016219;-59
2023/01/15 10:34:06;;;;;;;;;;;;;;;8.87;100.00;97789.73;67807;1278;1016470;-59
2023/01/15 10:37:09;;;;;;;18.70;4.70;;;;;;;8.82;100.00;97782.73;67854;1278;1017139;-59
2023/01/15 10:40:13;;;;;;;21.10;5.20;;;;;;;8.75;100.00;97775.72;67802;1277;1016761;-59
2023/01/15 10:43:16;;;;;;;20.00;5.20;;;;;;;8.71;100.00;97775.16;67735;1278;1015820;-59
2023/01/15 10:46:18;;;;;;;18.60;5.10;;;;;;;8.74;100.00;97767.61;67776;1278;1016356;-59
2023/01/15 10:49:20;;;;;;;19.40;5.10;;;;;;;8.75;100.00;97769.63;67837;1278;1016362;-59
2023/01/15 10:52:23;;;;;;;22.20;6.40;;;;;;;8.79;100.00;97769.38;67830;1278;1016298;-59
2023/01/15 10:55:25;;;;;;;22.20;6.10;;;;;;;8.75;100.00;97767.75;67826;1278;1016892;-59
2023/01/15 10:58:28;;;;;;;;;;;;;;;8.78;100.00;97760.32;67739;1278;1016362;-59
2023/01/15 11:01:30;;;;;;;23.70;6.40;;;;;;;8.82;100.00;97760.56;67772;1278;1016297;-59
2023/01/15 11:04:33;;;;;;;25.30;7.20;;;;;;;8.83;100.00;97758.28;67782;1277;1016869;-59
2023/01/15 11:07:35;;;;;;;23.50;7.00;;;;;;;8.82;100.00;97755.02;67796;1278;1016454;-59
2023/01/15 11:10:38;;;;;;;23.60;7.20;;;;;;;8.83;100.00;97750.44;67785;1278;1016117;-59
2023/01/15 11:20:21;;;;;;;20.80;6.00;;;;;;;8.58;100.00;97727.45;67816;1278;1018097;-60
2023/01/15 11:23:23;;;;;;;20.50;5.20;;;;;;;8.55;100.00;97718.92;67826;1278;1016494;-59
2023/01/15 11:26:26;;;;;;;21.90;5.40;;;;;;;8.60;100.00;97716.79;67829;1278;1016359;-60
2023/01/15 11:29:28;;;;;;;22.30;5.60;;;;;;;8.58;100.00;97707.56;67770;1278;1016709;-59
2023/01/15 11:32:30;;;;;;;21.70;5.10;;;;;;;8.54;100.00;97699.80;67760;1278;1016020;-59
2023/01/15 11:35:33;;;;;;;20.30;4.90;;;;;;;8.51;100.00;97698.33;67810;1254;1017833;-59
2023/01/15 11:38:35;;;;;;;19.90;5.00;;;;;;;8.46;100.00;97693.04;67859;1277;1016311;-59
2023/01/15 11:51:58;;;;;;;17.20;4.50;;;;;;;8.52;100.00;97676.98;67680;1278;1018449;-59
2023/01/15 11:55:01;;;;;;;19.60;4.30;;;;;;;8.56;100.00;97671.82;67762;1278;1016488;-59
2023/01/15 11:58:04;;;;;;;17.70;4.60;;;;;;;8.58;100.00;97668.36;67828;1277;1019817;-59
2023/01/15 12:01:06;;;;;;;17.60;4.60;;;;;;;8.60;100.00;97662.83;67822;1278;1015974;-60
2023/01/15 12:04:08;;;;;;;20.10;5.30;;;;;;;8.58;100.00;97656.68;67792;1278;1016497;-59
2023/01/15 12:07:11;;;;;;;18.50;4.80;;;;;;;8.62;100.00;97654.82;67749;1278;1017741;-59
2023/01/15 12:10:13;;;;;;;16.90;4.20;;;;;;;8.70;100.00;97650.08;67807;1277;1016471;-59
2023/01/15 12:13:16;;;;;;;17.60;4.50;;;;;;;8.74;100.00;97645.41;67788;1278;1016026;-59
2023/01/15 12:16:18;;;;;;;17.60;4.30;;;;;;;8.74;100.00;97648.43;67767;1278;1016499;-59
2023/01/15 12:19:21;;;;;;;17.50;4.50;;;;;;;8.73;100.00;97651.23;67777;1278;1018117;-59
2023/01/15 12:22:24;;;;;;;22.80;5.30;;;;;;;8.78;100.00;97639.36;67802;1278;1016390;-59
2023/01/15 12:25:26;;;;;;;72.30;32.70;;;;;;;8.81;100.00;97630.60;67820;1277;1016172;-60
2023/01/15 12:28:28;;;;;;;28.10;11.40;;;;;;;8.91;100.00;97631.85;67781;1278;1016432;-59
2023/01/15 12:31:31;;;;;;;28.10;10.30;;;;;;;8.93;100.00;97635.16;67783;1277;1017349;-60
2023/01/15 12:34:33;;;;;;;22.10;5.20;;;;;;;8.93;100.00;97635.88;67787;1278;1016459;-59
2023/01/15 12:37:36;;;;;;;21.70;5.90;;;;;;;8.94;100.00;97631.76;67830;1278;1016326;-60
2023/01/15 12:40:39;;;;;;;18.70;4.80;;;;;;;8.92;100.00;97631.77;67825;1278;1016607;-59
2023/01/15 12:47:02;;;;;;;17.50;4.40;;;;;;;8.96;100.00;97630.27;67836;1278;1016900;-59
2023/01/15 12:50:04;;;;;;;18.60;4.70;;;;;;;8.93;100.00;97629.96;67822;1278;1016696;-60
2023/01/15 12:53:07;;;;;;;;;;;;;;;8.95;100.00;97628.89;67829;1278;1016507;-59
2023/01/15 12:56:09;;;;;;;22.10;5.60;;;;;;;8.99;100.00;97628.92;67783;1277;1016427;-59
2023/01/15 12:59:12;;;;;;;18.20;4.90;;;;;;;9.01;100.00;97627.81;67799;1278;1016446;-59
2023/01/15 13:02:15;;;;;;;23.90;7.00;;;;;;;9.05;100.00;97629.95;67848;1278;1016518;-60
2023/01/15 13:05:18;;;;;;;20.70;5.70;;;;;;;9.05;100.00;97628.84;67765;1278;1016430;-60
2023/01/15 13:08:20;;;;;;;27.00;8.60;;;;;;;9.05;100.00;97628.16;67824;1278;1016576;-59
2023/01/15 13:11:23;;;;;;;18.60;5.40;;;;;;;9.03;100.00;97623.79;67857;1278;1016451;-60
2023/01/15 13:14:25;;;;;;;19.40;4.30;;;;;;;9.03;100.00;97617.67;67822;1278;1019260;-60
2023/01/15 13:17:28;;;;;;;16.80;4.10;;;;;;;9.03;100.00;97616.31;67749;1278;1016311;-60
2023/01/15 13:20:30;;;;;;;18.70;4.60;;;;;;;9.04;100.00;97617.83;67817;1277;1016481;-60
2023/01/15 13:23:33;;;;;;;17.90;3.80;;;;;;;9.07;100.00;97617.98;67793;1278;1016503;-60
2023/01/15 13:26:35;;;;;;;15.50;4.10;;;;;;;9.07;100.00;97614.27;67823;1278;1015997;-60
2023/01/15 13:29:38;;;;;;;17.70;4.20;;;;;;;9.00;100.00;97615.64;67766;1278;1016456;-59
2023/01/15 13:32:41;;;;;;;16.80;4.70;;;;;;;8.97;100.00;97612.05;67838;1278;1016418;-60
2023/01/15 13:35:44;;;;;;;21.00;5.50;;;;;;;8.95;100.00;97614.80;67788;1278;1016262;-60
2023/01/15 13:38:46;;;;;;;20.70;5.40;;;;;;;8.92;100.00;97614.66;67813;1278;1016362;-60
2023/01/15 13:45:09;;;;;;;16.30;3.70;;;;;;;8.90;100.00;97609.04;67835;1278;1016366;-60
2023/01/15 13:48:11;;;;;;;21.00;6.00;;;;;;;8.80;100.00;97612.94;67794;1278;1016411;-60
2023/01/15 13:51:14;;;;;;;19.60;5.00;;;;;;;8.80;100.00;97615.17;67753;1277;1016540;-60
2023/01/15 13:54:16;;;;;;;21.10;5.90;;;;;;;8.79;100.00;97617.14;67840;1277;1015785;-59
2023/01/15 13:57:19;;;;;;;;;;;;;;;8.79;100.00;97619.30;67850;1278;1016194;-59
2023/01/15 14:00:21;;;;;;;19.20;4.90;;;;;;;8.82;100.00;97626.20;67781;1278;1016439;-60
2023/01/15 14:03:26;;;;;;;17.80;4.40;;;;;;;8.82;100.00;97626.36;67801;1277;1016534;-59
2023/01/15 14:06:29;;;;;;;19.50;5.00;;;;;;;8.84;100.00;97624.16;67840;1277;1017178;-59
2023/01/15 14:09:33;;;;;;;20.00;4.70;;;;;;;8.80;100.00;97632.08;67791;1278;1019818;-60
2023/01/15 14:12:35;;;;;;;21.40;5.30;;;;;;;8.77;100.00;97634.44;67800;1278;1016824;-60
2023/01/15 14:15:38;;;;;;;27.60;8.70;;;;;;;8.72;100.00;97637.23;67786;1278;1016502;-59
2023/01/15 14:18:40;;;;;;;19.70;4.90;;;;;;;8.67;100.00;97641.89;67837;1278;1016577;-60
2023/01/15 14:21:43;;;;;;;18.50;5.40;;;;;;;8.72;100.00;97642.65;67835;1278;1016694;-60
2023/01/15 14:24:45;;;;;;;21.20;5.20;;;;;;;8.72;100.00;97637.77;67762;1277;1017650;-60
2023/01/15 14:27:49;;;;;;;21.60;5.40;;;;;;;8.65;100.00;97643.59;67788;1278;1016474;-60
2023/01/15 14:30:52;;;;;;;21.70;5.90;;;;;;;8.62;100.00;97642.94;67768;1277;1016428;-59
2023/01/15 14:33:54;;;;;;;22.00;5.70;;;;;;;8.59;100.00;97640.75;67830;1278;1016381;-60
2023/01/15 14:36:59;;;;;;;21.20;6.10;;;;;;;8.59;100.00;97641.46;67828;1278;1016449;-60
2023/01/15 14:40:02;;;;;;;27.20;7.40;;;;;;;8.59;100.00;97642.17;67747;1278;1016475;-60